Aérodrome :
LOGIN :

S'inscrire | Disclaimer

   EN    FR    IT 

 










Légende :    VFR   VFR Marginal   IFR   IFR Intensif   IFR Très Intensif
Visi : 
Plafond : 
>= 8 km
>= 3000ft
5 à 8 km
1000 à 3000 ft
1500m à 5 km
500 à 1000 ft
800 à 1500m
200 à 500 ft
< 800m
< 200 ft
Symboles :   Orages  Brouillard  Fortes neiges  Fortes précipitations  Vent > 20 kt
SIGMETs :   Divers  Orages  Givrage  Turbulence  Onde Orograph.  Cendres Volcan.







- Altitude de l'aérodrome : 288 ft
- Code IATA : BZZ


EGVN - RAF Brize Norton

DERNIER METAR :
  • 190350Z 28004KT 9999 BKN036 04/04 Q1022 NOSIG

METARs EXPIRÉS :
  • 190250Z 27004KT 9999 BKN035 04/03 Q1022 NOSIG
  • 190150Z 29004KT 9999 BKN039 04/03 Q1022 NOSIG

TAF TAF EGVN
Valide du 19 à 03h jusqu'au 20 à 03h UTC


190136Z 1903/2003 29004KT 9999 SCT040
PROB30 1903/1908 1200 BR MIFG
BECMG 1921/1923 BKN020
BECMG 1923/2002 BKN010
PROB40
TEMPO 2000/2003 5000 -RADZ SCT006
Pas de NOTAMs connus pour ce terrain.



MET'MAP, la Météo Aéronautique d'un coup d'oeil ! - Copyright ORBIFLY Décembre 2007 - Disclaimer

ORBIFLY MET'MAP TEAM :

Programmation & Développement : Alexandra Zaïnal
Conception & Développement : Baudouin d'Aumeries
Co-Programmation & Développement : Marc-Olivier Méhu
Soutien technique & logistique : Manuel Goepfert

Contact : metmap@orbifly.com




SOURCES & CREDITS :

   NOAA